createdAt,value
2019-03-01T00:00:18.722Z,98.07
2019-03-01T00:01:28.470Z,98.16
2019-03-01T00:02:38.166Z,97.97
2019-03-01T00:03:48.098Z,98.73
2019-03-01T00:04:57.797Z,98.44
2019-03-01T00:06:07.878Z,98.82
2019-03-01T00:07:17.329Z,98.54
2019-03-01T00:08:27.023Z,98.16
2019-03-01T00:09:36.214Z,98.44
2019-03-01T00:10:45.901Z,98.44
2019-03-01T00:11:55.607Z,97.97
2019-03-01T00:13:05.605Z,98.54
2019-03-01T00:14:15.550Z,98.73
2019-03-01T00:15:25.480Z,98.63
2019-03-01T00:16:35.175Z,98.54
2019-03-01T00:17:44.869Z,98.54
2019-03-01T00:18:54.829Z,98.54
2019-03-01T00:20:04.775Z,98.82
2019-03-01T00:21:14.462Z,98.73
2019-03-01T00:22:24.386Z,99.01
2019-03-01T00:23:34.090Z,98.82
2019-03-01T00:24:44.023Z,98.92
2019-03-01T00:25:53.749Z,99.01
2019-03-01T00:27:03.443Z,98.92
2019-03-01T00:28:13.136Z,98.92
2019-03-01T00:29:22.850Z,98.82
2019-03-01T00:30:32.805Z,98.92
2019-03-01T00:31:42.796Z,98.82
2019-03-01T00:32:52.247Z,99.3
2019-03-01T00:34:01.684Z,99.2
2019-03-01T00:35:11.625Z,99.2
2019-03-01T00:36:21.627Z,99.01
2019-03-01T00:37:31.578Z,98.92
2019-03-01T00:38:41.529Z,99.3
2019-03-01T00:39:51.470Z,99.01
2019-03-01T00:41:01.425Z,99.39
2019-03-01T00:42:11.367Z,99.39
2019-03-01T00:43:21.324Z,99.3
2019-03-01T00:44:31.384Z,99.01
2019-03-01T00:45:41.096Z,99.11
2019-03-01T00:46:51.085Z,99.01
2019-03-01T00:48:01.082Z,98.82
2019-03-01T00:49:10.794Z,99.39
2019-03-01T00:50:20.488Z,99.2
2019-03-01T00:51:29.959Z,99.99
2019-03-01T00:52:40.145Z,99.77
2019-03-01T00:53:49.881Z,99.77
2019-03-01T00:54:59.813Z,99.49
2019-03-01T00:56:09.278Z,99.87
2019-03-01T00:57:18.722Z,99.96
2019-03-01T00:58:28.659Z,99.53
2019-03-01T00:59:38.625Z,99.99
2019-03-01T01:00:48.319Z,99.82
2019-03-01T01:01:58.263Z,99.15
2019-03-01T01:03:08.207Z,99.91
2019-03-01T01:04:17.655Z,99.72
2019-03-01T01:05:27.611Z,99.82
2019-03-01T01:06:37.544Z,99.82
2019-03-01T01:07:47.230Z,99.82
2019-03-01T01:08:56.933Z,99.91
2019-03-01T01:10:06.929Z,99.91
2019-03-01T01:11:16.871Z,99.87
2019-03-01T01:12:26.815Z,99.72
2019-03-01T01:13:36.757Z,99.63
2019-03-01T01:14:46.454Z,99.91
2019-03-01T01:15:55.891Z,99.96
2019-03-01T01:17:05.823Z,99.87
2019-03-01T01:18:15.765Z,99.87
2019-03-01T01:19:25.470Z,99.68
2019-03-01T01:20:35.404Z,99.99
2019-03-01T01:21:45.375Z,99.58
2019-03-01T01:22:55.358Z,99.39
2019-03-01T01:24:04.796Z,99.58
2019-03-01T01:25:14.478Z,99.87
2019-03-01T01:26:24.422Z,99.77
2019-03-01T01:27:34.361Z,99.58
2019-03-01T01:28:46.037Z,99.99
2019-03-01T01:29:55.966Z,99.68
2019-03-01T01:31:05.684Z,99.39
2019-03-01T01:32:15.389Z,99.3
2019-03-01T01:33:25.385Z,98.73
2019-03-01T01:34:35.332Z,99.2
2019-03-01T01:35:45.280Z,99.2
2019-03-01T01:36:55.221Z,98.73
2019-03-01T01:38:05.168Z,99.2
2019-03-01T01:39:14.861Z,99.2
2019-03-01T01:40:26.062Z,99.01
2019-03-01T01:41:35.765Z,98.92
2019-03-01T01:42:45.778Z,98.92
2019-03-01T01:43:55.720Z,98.73
2019-03-01T01:45:05.417Z,98.73
2019-03-01T01:46:15.160Z,99.11
2019-03-01T01:47:24.861Z,98.82
2019-03-01T01:48:34.555Z,98.54
2019-03-01T01:49:44.506Z,99.2
2019-03-01T01:50:53.943Z,99.2
2019-03-01T01:52:03.878Z,99.2
2019-03-01T01:53:13.575Z,99.39
2019-03-01T01:54:23.012Z,99.01
2019-03-01T01:55:32.960Z,99.2
2019-03-01T01:56:42.908Z,98.63
2019-03-01T01:57:52.859Z,99.01
2019-03-01T01:59:02.802Z,98.82
2019-03-01T02:00:12.257Z,98.35
2019-03-01T02:01:22.227Z,98.35
2019-03-01T02:02:31.927Z,99.01
2019-03-01T02:03:41.362Z,99.2
2019-03-01T02:04:51.079Z,99.01
2019-03-01T02:06:01.028Z,99.01
2019-03-01T02:07:10.985Z,99.2
2019-03-01T02:08:20.667Z,99.3
2019-03-01T02:09:30.387Z,99.2
2019-03-01T02:10:40.341Z,99.01
2019-03-01T02:11:50.294Z,99.2
2019-03-01T02:13:00.242Z,99.11
2019-03-01T02:14:10.205Z,99.2
2019-03-01T02:15:19.897Z,99.01
2019-03-01T02:16:29.592Z,98.92
2019-03-01T02:17:39.030Z,98.82
2019-03-01T02:18:57.403Z,99.11
2019-03-01T02:20:07.671Z,98.82
2019-03-01T02:21:17.358Z,99.11
2019-03-01T02:22:27.303Z,98.82
2019-03-01T02:23:37.247Z,99.11
2019-03-01T02:24:47.592Z,98.54
2019-03-01T02:25:57.305Z,98.35
2019-03-01T02:27:06.993Z,98.82
2019-03-01T02:28:16.695Z,98.73
2019-03-01T02:29:26.413Z,98.44
2019-03-01T02:30:36.357Z,98.35
2019-03-01T02:31:46.334Z,97.59
2019-03-01T02:32:56.289Z,97.78
2019-03-01T02:34:06.247Z,97.88
2019-03-01T02:35:15.994Z,97.69
2019-03-01T02:36:25.952Z,97.78
2019-03-01T02:37:35.658Z,97.69
2019-03-01T02:38:45.355Z,97.31
2019-03-01T02:39:55.302Z,97.78
2019-03-01T02:41:05.608Z,97.97
2019-03-01T02:42:15.585Z,97.69
2019-03-01T02:43:25.540Z,97.59
2019-03-01T02:44:35.486Z,97.59
2019-03-01T02:45:45.442Z,98.35
2019-03-01T02:46:55.166Z,98.25
2019-03-01T02:48:04.866Z,98.54
2019-03-01T02:49:14.824Z,98.54
2019-03-01T02:50:24.812Z,98.54
2019-03-01T02:51:34.766Z,98.25
2019-03-01T02:52:44.709Z,98.25
2019-03-01T02:53:54.707Z,98.35
2019-03-01T02:55:04.693Z,97.78
2019-03-01T02:56:14.166Z,98.54
2019-03-01T02:57:24.158Z,98.54
2019-03-01T02:58:33.971Z,98.25
2019-03-01T02:59:43.433Z,98.35
2019-03-01T03:00:53.400Z,98.35
2019-03-01T03:02:03.428Z,98.25
2019-03-01T03:03:13.406Z,98.25
2019-03-01T03:04:23.358Z,98.35
2019-03-01T03:05:33.044Z,98.16
2019-03-01T03:06:43.001Z,98.44
2019-03-01T03:07:53.063Z,98.54
2019-03-01T03:09:03.037Z,98.82
2019-03-01T03:10:13.018Z,98.82
2019-03-01T03:11:22.763Z,98.82
2019-03-01T03:12:32.712Z,98.92
2019-03-01T03:13:42.698Z,99.2
2019-03-01T03:14:52.651Z,99.2
2019-03-01T03:16:02.452Z,98.63
2019-03-01T03:17:12.448Z,99.2
2019-03-01T03:18:21.916Z,99.2
2019-03-01T03:19:31.891Z,99.2
2019-03-01T03:20:41.848Z,98.92
2019-03-01T03:21:51.854Z,98.92
2019-03-01T03:23:01.574Z,98.92
2019-03-01T03:24:11.322Z,99.01
2019-03-01T03:25:21.305Z,99.2
2019-03-01T03:26:31.254Z,99.2
2019-03-01T03:27:40.774Z,99.01
2019-03-01T03:28:50.537Z,99.2
2019-03-01T03:30:00.796Z,99.49
2019-03-01T03:31:10.635Z,98.82
2019-03-01T03:32:20.373Z,99.2
2019-03-01T03:33:30.339Z,99.01
2019-03-01T03:34:40.399Z,98.92
2019-03-01T03:35:50.384Z,99.11
2019-03-01T03:37:00.379Z,98.54
2019-03-01T03:38:10.333Z,98.54
2019-03-01T03:39:19.811Z,98.44
2019-03-01T03:40:29.527Z,98.44
2019-03-01T03:41:39.533Z,98.44
2019-03-01T03:42:49.292Z,98.63
2019-03-01T03:43:59.260Z,98.54
2019-03-01T03:45:09.212Z,98.44
2019-03-01T03:46:19.170Z,98.44
2019-03-01T03:47:29.165Z,98.82
2019-03-01T03:48:38.910Z,98.63
2019-03-01T03:49:48.876Z,98.44
2019-03-01T03:50:58.829Z,98.54
2019-03-01T03:52:08.799Z,98.44
2019-03-01T03:53:18.823Z,98.35
2019-03-01T03:54:28.530Z,98.35
2019-03-01T03:55:37.991Z,97.69
2019-03-01T03:56:48.025Z,98.44
2019-03-01T03:57:57.758Z,98.44
2019-03-01T03:59:07.714Z,97.97
2019-03-01T04:00:17.745Z,97.97
2019-03-01T04:01:27.752Z,97.78
2019-03-01T04:02:37.472Z,97.78
2019-03-01T04:03:46.913Z,97.55
2019-03-01T04:04:56.886Z,97.5
2019-03-01T04:06:06.658Z,97.69
2019-03-01T04:07:16.152Z,97.4
2019-03-01T04:08:25.851Z,97.97
2019-03-01T04:09:35.891Z,98.25
2019-03-01T04:10:45.841Z,98.16
2019-03-01T04:11:55.550Z,98.07
2019-03-01T04:13:05.254Z,98.49
2019-03-01T04:14:15.457Z,99.01
2019-03-01T04:15:25.414Z,98.82
2019-03-01T04:16:35.384Z,98.92
2019-03-01T04:17:44.847Z,99.2
2019-03-01T04:18:54.555Z,98.92
2019-03-01T04:20:04.417Z,99.01
2019-03-01T04:21:14.118Z,98.92
2019-03-01T04:22:23.814Z,99.01
2019-03-01T04:23:33.268Z,98.73
2019-03-01T04:24:42.980Z,98.73
2019-03-01T04:25:52.691Z,98.44
2019-03-01T04:27:02.643Z,98.44
2019-03-01T04:28:12.606Z,98.25
2019-03-01T04:29:22.600Z,98.54
2019-03-01T04:30:32.568Z,98.25
2019-03-01T04:31:42.276Z,98.44
2019-03-01T04:32:52.237Z,98.44
2019-03-01T04:34:02.186Z,98.82
2019-03-01T04:35:13.708Z,98.49
2019-03-01T04:36:23.715Z,98.87
2019-03-01T04:37:32.910Z,99.11
2019-03-01T04:38:42.376Z,99.01
2019-03-01T04:39:52.335Z,99.68
2019-03-01T04:41:02.279Z,99.39
2019-03-01T04:42:12.225Z,99.2
2019-03-01T04:43:22.182Z,99.49
2019-03-01T04:44:32.130Z,99.77
2019-03-01T04:45:42.069Z,99.39
2019-03-01T04:46:51.767Z,99.01
2019-03-01T04:48:01.706Z,99.2
2019-03-01T04:49:11.682Z,99.01
2019-03-01T04:50:21.624Z,99.01
2019-03-01T04:51:39.821Z,99.01
2019-03-01T04:52:50.074Z,99.3
2019-03-01T04:54:00.030Z,99.01
2019-03-01T04:55:09.710Z,99.49
2019-03-01T04:56:21.743Z,99.99
2019-03-01T04:57:31.847Z,99.77
2019-03-01T04:58:41.550Z,99.87
2019-03-01T04:59:51.017Z,99.99
2019-03-01T05:01:00.968Z,99.99
2019-03-01T05:02:10.659Z,99.99
2019-03-01T05:03:20.381Z,99.99
2019-03-01T05:04:30.359Z,99.99
2019-03-01T05:05:39.804Z,99.99
2019-03-01T05:06:49.498Z,99.99
2019-03-01T05:07:59.175Z,99.99
2019-03-01T05:09:09.121Z,99.99
2019-03-01T05:10:19.071Z,99.99
2019-03-01T05:11:28.516Z,99.99
2019-03-01T05:12:38.494Z,99.99
2019-03-01T05:13:48.432Z,99.99
2019-03-01T05:14:58.368Z,99.99
2019-03-01T05:16:07.808Z,99.99
2019-03-01T05:17:17.752Z,99.99
2019-03-01T05:18:27.446Z,99.99
2019-03-01T05:19:37.144Z,99.99
2019-03-01T05:20:47.083Z,99.99
2019-03-01T05:21:56.794Z,99.99
2019-03-01T05:23:06.254Z,99.99
2019-03-01T05:24:15.947Z,99.99
2019-03-01T05:25:25.894Z,99.99
2019-03-01T05:26:35.834Z,99.99
2019-03-01T05:27:45.788Z,99.99
2019-03-01T05:28:55.716Z,99.99
2019-03-01T05:30:05.673Z,99.99
2019-03-01T05:31:15.613Z,99.99
2019-03-01T05:32:25.561Z,99.99
2019-03-01T05:33:35.530Z,99.99
2019-03-01T05:34:45.226Z,99.99
2019-03-01T05:35:55.161Z,99.99
2019-03-01T05:37:05.142Z,99.99
2019-03-01T05:38:23.909Z,99.99
2019-03-01T05:39:33.856Z,99.99
2019-03-01T05:40:43.298Z,99.99
2019-03-01T05:41:53.243Z,99.99
2019-03-01T05:43:03.239Z,99.99
2019-03-01T05:44:13.181Z,99.99
2019-03-01T05:45:23.148Z,99.99
2019-03-01T05:46:33.096Z,99.99
2019-03-01T05:47:42.539Z,99.99
2019-03-01T05:48:52.486Z,99.99
2019-03-01T05:50:01.680Z,99.99
2019-03-01T05:51:12.333Z,99.99
2019-03-01T05:52:22.305Z,99.99
2019-03-01T05:53:32.016Z,99.99
2019-03-01T05:54:41.974Z,99.99
2019-03-01T05:55:51.931Z,99.99
2019-03-01T05:57:01.618Z,99.99
2019-03-01T05:58:18.736Z,99.99
2019-03-01T05:59:28.445Z,99.99
2019-03-01T06:00:38.154Z,99.99
2019-03-01T06:01:47.695Z,99.99
2019-03-01T06:02:57.641Z,99.99
2019-03-01T06:04:06.831Z,99.99
2019-03-01T06:05:16.537Z,99.99
2019-03-01T06:06:27.941Z,99.99
2019-03-01T06:07:37.879Z,99.99
2019-03-01T06:08:47.585Z,99.99
2019-03-01T06:09:57.281Z,99.99
2019-03-01T06:11:07.229Z,99.99
2019-03-01T06:12:16.685Z,99.99
2019-03-01T06:13:26.629Z,99.99
2019-03-01T06:14:36.570Z,99.99
2019-03-01T06:15:46.517Z,99.99
2019-03-01T06:16:55.713Z,99.99
2019-03-01T06:18:05.658Z,99.99
2019-03-01T06:19:15.650Z,99.99
2019-03-01T06:20:25.347Z,99.99
2019-03-01T06:21:35.037Z,99.99
2019-03-01T06:22:44.988Z,99.99
2019-03-01T06:23:54.933Z,99.99
2019-03-01T06:25:04.649Z,99.99
2019-03-01T06:26:14.359Z,99.99
2019-03-01T06:27:24.056Z,99.99
2019-03-01T06:28:33.733Z,99.99
2019-03-01T06:29:43.423Z,99.99
2019-03-01T06:30:54.535Z,99.99
2019-03-01T06:32:04.504Z,99.99
2019-03-01T06:33:14.197Z,99.99
2019-03-01T06:34:24.172Z,99.99
2019-03-01T06:35:33.639Z,99.99
2019-03-01T06:36:43.353Z,99.99
2019-03-01T06:37:53.323Z,99.99
2019-03-01T06:39:02.779Z,99.99
2019-03-01T06:40:12.717Z,99.99
2019-03-01T06:41:22.413Z,99.99
2019-03-01T06:42:32.367Z,99.99
2019-03-01T06:43:42.329Z,99.99
2019-03-01T06:44:52.035Z,99.99
2019-03-01T06:46:01.982Z,99.99
2019-03-01T06:47:11.678Z,99.99
2019-03-01T06:48:21.625Z,99.99
2019-03-01T06:49:31.591Z,99.99
2019-03-01T06:50:41.294Z,99.99
2019-03-01T06:51:51.026Z,99.99
2019-03-01T06:53:01.008Z,99.99
2019-03-01T06:54:10.729Z,99.99
2019-03-01T06:55:20.707Z,99.99
2019-03-01T06:56:30.659Z,99.99
2019-03-01T06:57:40.367Z,99.99
2019-03-01T06:58:50.333Z,99.99
2019-03-01T07:00:00.375Z,99.99
2019-03-01T07:01:10.534Z,99.99
2019-03-01T07:02:20.504Z,99.99
2019-03-01T07:03:30.225Z,99.99
2019-03-01T07:04:40.185Z,99.99
2019-03-01T07:05:50.135Z,99.99
2019-03-01T07:07:08.535Z,99.99
2019-03-01T07:08:18.233Z,99.99
2019-03-01T07:09:28.192Z,99.99
2019-03-01T07:10:38.138Z,99.99
2019-03-01T07:11:48.122Z,99.99
2019-03-01T07:12:58.088Z,99.99
2019-03-01T07:14:07.783Z,99.99
2019-03-01T07:15:17.509Z,99.99
2019-03-01T07:16:27.453Z,99.99
2019-03-01T07:17:37.391Z,99.99
2019-03-01T07:18:47.089Z,99.99
2019-03-01T07:19:56.850Z,99.99
2019-03-01T07:21:06.798Z,99.99
2019-03-01T07:22:16.508Z,99.99
2019-03-01T07:23:26.235Z,99.99
2019-03-01T07:24:44.330Z,99.99
2019-03-01T07:25:54.843Z,99.99
2019-03-01T07:27:04.741Z,99.99
2019-03-01T07:28:15.347Z,99.99
2019-03-01T07:29:25.051Z,99.99
2019-03-01T07:30:34.746Z,99.99
2019-03-01T07:31:44.782Z,99.99
2019-03-01T07:32:54.764Z,99.99
2019-03-01T07:34:04.791Z,99.99
2019-03-01T07:35:14.507Z,99.99
2019-03-01T07:36:24.248Z,99.99
2019-03-01T07:37:34.217Z,99.99
2019-03-01T07:38:44.205Z,99.99
2019-03-01T07:39:54.170Z,99.99
2019-03-01T07:41:04.190Z,99.99
2019-03-01T07:42:14.156Z,99.99
2019-03-01T07:43:23.636Z,99.99
2019-03-01T07:44:33.607Z,99.99
2019-03-01T07:45:43.315Z,99.99
2019-03-01T07:46:55.762Z,99.99
2019-03-01T07:48:05.734Z,99.99
2019-03-01T07:49:15.208Z,99.99
2019-03-01T07:50:25.539Z,99.99
2019-03-01T07:51:36.027Z,99.99
2019-03-01T07:52:45.565Z,99.99
2019-03-01T07:53:55.525Z,99.99
2019-03-01T07:55:05.485Z,99.99
2019-03-01T07:56:16.487Z,99.99
2019-03-01T07:57:26.199Z,99.99
2019-03-01T07:58:36.890Z,99.99
2019-03-01T07:59:46.861Z,99.99
2019-03-01T08:00:57.195Z,99.99
2019-03-01T08:02:07.465Z,99.99
2019-03-01T08:03:18.337Z,99.99
2019-03-01T08:04:31.885Z,99.99
2019-03-01T08:05:42.821Z,99.99
2019-03-01T08:06:52.793Z,99.99
2019-03-01T08:08:06.058Z,99.99
2019-03-01T08:09:15.769Z,99.99
2019-03-01T08:10:25.724Z,99.99
2019-03-01T08:11:35.690Z,99.99
2019-03-01T08:12:47.407Z,99.99
2019-03-01T08:13:57.675Z,99.99
2019-03-01T08:15:11.458Z,99.99
2019-03-01T08:16:25.010Z,99.99
2019-03-01T08:17:35.255Z,99.99
2019-03-01T08:18:47.393Z,99.99
2019-03-01T08:20:01.963Z,99.99
2019-03-01T08:21:14.760Z,99.99
2019-03-01T08:22:28.283Z,99.99
2019-03-01T08:23:53.061Z,99.99
2019-03-01T08:25:03.049Z,99.99
2019-03-01T08:26:13.039Z,99.99
2019-03-01T08:27:25.132Z,99.99
2019-03-01T08:28:34.761Z,99.99
2019-03-01T08:29:44.756Z,99.99
2019-03-01T08:30:54.707Z,99.99
2019-03-01T08:32:04.668Z,99.99
2019-03-01T08:33:14.634Z,99.99
2019-03-01T08:34:24.634Z,99.99
2019-03-01T08:35:34.743Z,99.99
2019-03-01T08:36:45.993Z,99.99
2019-03-01T08:37:56.627Z,99.99
2019-03-01T08:39:08.151Z,99.99
2019-03-01T08:40:18.145Z,99.99
2019-03-01T08:41:28.480Z,99.99
2019-03-01T08:42:38.970Z,99.99
2019-03-01T08:43:52.051Z,99.99
2019-03-01T08:45:02.778Z,99.99
2019-03-01T08:46:12.939Z,99.99
2019-03-01T08:47:26.054Z,99.99
2019-03-01T08:48:37.249Z,99.99
2019-03-01T08:49:47.214Z,99.99
2019-03-01T08:50:57.166Z,99.99
2019-03-01T08:52:07.158Z,99.99
2019-03-01T08:53:18.425Z,99.99
2019-03-01T08:54:31.098Z,99.99
2019-03-01T08:55:41.935Z,99.99
2019-03-01T08:56:52.786Z,99.99
2019-03-01T08:58:07.203Z,99.99
2019-03-01T08:59:20.817Z,99.99
2019-03-01T09:00:30.651Z,99.99
2019-03-01T09:01:41.639Z,99.99
2019-03-01T09:02:54.359Z,99.99
2019-03-01T09:04:04.324Z,99.99
2019-03-01T09:05:19.727Z,99.99
2019-03-01T09:06:29.680Z,99.99
2019-03-01T09:07:39.631Z,99.99
2019-03-01T09:08:49.596Z,99.99
2019-03-01T09:10:00.424Z,99.99
2019-03-01T09:11:12.631Z,99.99
2019-03-01T09:12:22.370Z,99.99
2019-03-01T09:13:36.169Z,99.99
2019-03-01T09:14:46.309Z,99.87
2019-03-01T09:15:56.041Z,99.99
2019-03-01T09:17:06.282Z,99.99
2019-03-01T09:18:17.102Z,99.77
2019-03-01T09:19:28.445Z,99.97
2019-03-01T09:20:40.978Z,99.97
2019-03-01T09:21:53.328Z,99.49
2019-03-01T09:23:21.072Z,99.49
2019-03-01T09:24:34.968Z,99.11
2019-03-01T09:25:49.692Z,99.49
2019-03-01T09:26:59.598Z,99.11
2019-03-01T09:28:09.314Z,98.92
2019-03-01T09:29:21.062Z,99.02
2019-03-01T09:30:31.027Z,99.21
2019-03-01T09:31:43.006Z,98.83
2019-03-01T09:32:53.712Z,97.64
2019-03-01T09:34:03.208Z,97.92
2019-03-01T09:35:13.644Z,98.02
2019-03-01T09:36:24.012Z,98.12
2019-03-01T09:37:35.038Z,97.07
2019-03-01T09:38:45.974Z,96.31
2019-03-01T09:40:05.174Z,96.64
2019-03-01T09:41:15.523Z,96.6
2019-03-01T09:42:25.266Z,96.22
2019-03-01T09:43:35.240Z,96.79
2019-03-01T09:44:44.978Z,96.41
2019-03-01T09:45:54.442Z,95.94
2019-03-01T09:47:05.100Z,96.31
2019-03-01T09:48:15.408Z,96.36
2019-03-01T09:49:27.563Z,96.74
2019-03-01T09:50:40.458Z,97.41
2019-03-01T09:51:52.454Z,97.88
2019-03-01T09:53:02.191Z,97.6
2019-03-01T09:54:12.732Z,97.78
2019-03-01T09:55:22.440Z,97.31
2019-03-01T09:56:32.430Z,97.97
2019-03-01T09:57:42.147Z,97.88
2019-03-01T09:58:51.878Z,97.6
2019-03-01T10:00:01.582Z,97.88
2019-03-01T10:01:11.621Z,97.55
2019-03-01T10:02:21.108Z,96.74
2019-03-01T10:03:31.110Z,96.79
2019-03-01T10:04:41.082Z,97.55
2019-03-01T10:05:50.791Z,97.64
2019-03-01T10:07:00.605Z,97.45
2019-03-01T10:08:10.316Z,97.83
2019-03-01T10:09:20.044Z,97.92
2019-03-01T10:10:29.919Z,97.74
2019-03-01T10:11:39.416Z,97.83
2019-03-01T10:12:49.118Z,97.83
2019-03-01T10:13:58.857Z,98.12
2019-03-01T10:15:08.832Z,97.83
2019-03-01T10:16:18.535Z,97.64
2019-03-01T10:17:28.514Z,97.64
2019-03-01T10:18:38.492Z,97.27
2019-03-01T10:19:48.480Z,97.64
2019-03-01T10:20:58.456Z,97.55
2019-03-01T10:22:08.152Z,97.64
2019-03-01T10:23:17.858Z,97.92
2019-03-01T10:24:27.553Z,97.36
2019-03-01T10:25:37.560Z,96.88
2019-03-01T10:26:47.577Z,96.03
2019-03-01T10:27:57.307Z,96.22
2019-03-01T10:29:07.040Z,96.03
2019-03-01T10:30:16.798Z,95.65
2019-03-01T10:31:26.510Z,95.94
2019-03-01T10:32:36.468Z,95.27
2019-03-01T10:33:46.178Z,95.36
2019-03-01T10:34:56.129Z,94.98
2019-03-01T10:36:06.110Z,95.27
2019-03-01T10:37:16.076Z,96.03
2019-03-01T10:38:26.038Z,95.55
2019-03-01T10:39:35.984Z,95.84
2019-03-01T10:40:45.950Z,96.03
2019-03-01T10:41:55.911Z,96.03
2019-03-01T10:43:05.869Z,95.36
2019-03-01T10:44:15.574Z,95.27
2019-03-01T10:45:25.563Z,94.7
2019-03-01T10:46:35.528Z,95.27
2019-03-01T10:47:45.233Z,95.36
2019-03-01T10:48:55.187Z,95.55
2019-03-01T10:50:05.134Z,95.08
2019-03-01T10:51:14.593Z,95.17
2019-03-01T10:52:24.299Z,94.6
2019-03-01T10:53:34.042Z,95.46
2019-03-01T10:54:43.797Z,95.08
2019-03-01T10:55:53.753Z,95.36
2019-03-01T10:57:03.726Z,94.42
2019-03-01T10:58:13.425Z,94.32
2019-03-01T10:59:23.136Z,94.6
2019-03-01T11:00:33.104Z,94.23
2019-03-01T11:01:43.097Z,94.6
2019-03-01T11:02:53.219Z,94.98
2019-03-01T11:04:03.182Z,94.32
2019-03-01T11:05:12.925Z,94.32
2019-03-01T11:06:22.893Z,93.94
2019-03-01T11:07:32.605Z,94.32
2019-03-01T11:08:42.863Z,93.41
2019-03-01T11:09:52.809Z,93.46
2019-03-01T11:11:02.337Z,93.23
2019-03-01T11:12:12.070Z,93.94
2019-03-01T11:13:22.089Z,93.37
2019-03-01T11:14:31.813Z,93.65
2019-03-01T11:15:42.021Z,93.37
2019-03-01T11:16:52.053Z,94.03
2019-03-01T11:18:02.505Z,94.13
2019-03-01T11:19:12.237Z,94.32
2019-03-01T11:20:22.201Z,94.89
2019-03-01T11:21:32.379Z,95.36
2019-03-01T11:22:42.336Z,95.17
2019-03-01T11:23:52.339Z,95.17
2019-03-01T11:25:02.059Z,95.27
2019-03-01T11:26:11.782Z,95.17
2019-03-01T11:27:21.748Z,95.36
2019-03-01T11:28:31.213Z,95.08
2019-03-01T11:29:41.153Z,95.55
2019-03-01T11:30:51.115Z,95.55
2019-03-01T11:32:01.060Z,95.94
2019-03-01T11:33:10.782Z,96.41
2019-03-01T11:34:20.475Z,97.27
2019-03-01T11:35:30.185Z,97.83
2019-03-01T11:36:40.176Z,97.74
2019-03-01T11:37:49.632Z,97.83
2019-03-01T11:38:59.341Z,98.59
2019-03-01T11:40:09.061Z,98.79
2019-03-01T11:41:19.034Z,99.54
2019-03-01T11:42:29.007Z,99.16
2019-03-01T11:43:38.982Z,99.64
2019-03-01T11:44:48.939Z,99.99
2019-03-01T11:46:00.575Z,99.99
2019-03-01T11:47:10.481Z,99.99
2019-03-01T11:48:20.469Z,99.99
2019-03-01T11:49:30.423Z,99.99
2019-03-01T11:50:40.377Z,99.99
2019-03-01T11:51:50.342Z,99.99
2019-03-01T11:53:00.324Z,99.99
2019-03-01T11:54:10.307Z,99.99
2019-03-01T11:55:20.246Z,99.99
2019-03-01T11:56:30.195Z,99.99
2019-03-01T11:57:40.167Z,99.99
2019-03-01T11:58:49.914Z,99.99
2019-03-01T11:59:59.643Z,99.99
2019-03-01T12:01:19.281Z,99.99
2019-03-01T12:02:28.977Z,99.99
2019-03-01T12:03:38.728Z,99.99
2019-03-01T12:04:48.693Z,99.07
2019-03-01T12:05:58.400Z,99.44
2019-03-01T12:07:08.403Z,99.07
2019-03-01T12:08:18.391Z,99.07
2019-03-01T12:09:28.363Z,98.97
2019-03-01T12:10:38.336Z,98.59
2019-03-01T12:11:48.057Z,98.31
2019-03-01T12:12:58.013Z,98.31
2019-03-01T12:14:07.725Z,98.5
2019-03-01T12:15:17.439Z,98.12
2019-03-01T12:16:27.404Z,98.21
2019-03-01T12:17:37.113Z,97.92
2019-03-01T12:18:47.082Z,97.92
2019-03-01T12:19:57.031Z,97.92
2019-03-01T12:21:06.993Z,97.55
2019-03-01T12:22:19.702Z,98.02
2019-03-01T12:23:29.668Z,97.92
2019-03-01T12:24:39.626Z,98.69
2019-03-01T12:25:49.349Z,98.4
2019-03-01T12:26:59.064Z,98.59
2019-03-01T12:28:09.022Z,98.4
2019-03-01T12:29:18.736Z,98.79
2019-03-01T12:30:28.709Z,98.21
2019-03-01T12:31:38.671Z,98.31
2019-03-01T12:32:48.364Z,98.12
2019-03-01T12:33:57.809Z,97.36
2019-03-01T12:35:07.551Z,97.07
2019-03-01T12:36:17.535Z,97.55
2019-03-01T12:37:27.503Z,97.83
2019-03-01T12:38:37.466Z,97.92
2019-03-01T12:39:46.926Z,97.55
2019-03-01T12:40:56.625Z,96.6
2019-03-01T12:42:06.593Z,96.5
2019-03-01T12:43:16.556Z,96.6
2019-03-01T12:44:26.505Z,96.6
2019-03-01T12:45:36.202Z,96.5
2019-03-01T12:46:46.402Z,96.12
2019-03-01T12:47:56.108Z,95.84
2019-03-01T12:49:06.068Z,96.03
2019-03-01T12:50:16.013Z,96.22
2019-03-01T12:51:25.977Z,96.12
2019-03-01T12:52:35.427Z,96.6
2019-03-01T12:53:45.122Z,96.83
2019-03-01T12:54:54.830Z,97.78
2019-03-01T12:56:04.785Z,97.78
2019-03-01T12:57:14.745Z,96.74
2019-03-01T12:58:24.448Z,97.12
2019-03-01T12:59:34.143Z,97.22
2019-03-01T13:00:44.097Z,96.64
2019-03-01T13:01:53.801Z,96.55
2019-03-01T13:03:05.097Z,96.45
2019-03-01T13:04:18.561Z,96.55
2019-03-01T13:05:32.422Z,96.36
2019-03-01T13:06:42.371Z,97.02
2019-03-01T13:07:54.324Z,97.02
2019-03-01T13:09:04.174Z,96.55
2019-03-01T13:10:14.756Z,96.74
2019-03-01T13:11:24.703Z,96.55
2019-03-01T13:12:34.407Z,96.55
2019-03-01T13:13:43.839Z,96.64
2019-03-01T13:14:53.793Z,96.83
2019-03-01T13:16:03.514Z,96.45
2019-03-01T13:17:13.473Z,97.02
2019-03-01T13:18:23.169Z,96.74
2019-03-01T13:19:33.124Z,96.45
2019-03-01T13:20:42.837Z,96.08
2019-03-01T13:21:52.803Z,96.64
2019-03-01T13:23:04.596Z,96.45
2019-03-01T13:24:19.567Z,96.17
2019-03-01T13:25:32.472Z,96.74
2019-03-01T13:26:43.959Z,96.83
2019-03-01T13:27:54.781Z,96.55
2019-03-01T13:29:04.756Z,96.93
2019-03-01T13:30:14.212Z,96.74
2019-03-01T13:31:23.658Z,96.93
2019-03-01T13:32:33.608Z,97.88
2019-03-01T13:33:43.556Z,97.88
2019-03-01T13:34:53.499Z,98.35
2019-03-01T13:36:06.905Z,98.35
2019-03-01T13:37:22.651Z,98.54
2019-03-01T13:38:36.103Z,97.69
2019-03-01T13:39:50.443Z,97.6
2019-03-01T13:41:02.046Z,98.64
2019-03-01T13:42:15.861Z,98.16
2019-03-01T13:43:27.341Z,98.35
2019-03-01T13:44:42.781Z,98.64
2019-03-01T13:45:55.711Z,98.21
2019-03-01T13:47:10.663Z,99.16
2019-03-01T13:48:21.561Z,99.73
2019-03-01T13:49:32.976Z,99.99
2019-03-01T13:50:44.694Z,99.63
2019-03-01T13:51:56.193Z,99.99
2019-03-01T13:53:06.572Z,99.63
2019-03-01T13:54:16.634Z,99.99
2019-03-01T13:55:27.642Z,99.82
2019-03-01T13:56:38.491Z,99.82
2019-03-01T13:57:51.806Z,99.82
2019-03-01T13:59:04.993Z,99.99
2019-03-01T14:00:14.959Z,99.99
2019-03-01T14:01:29.189Z,99.99
2019-03-01T14:02:39.132Z,99.99
2019-03-01T14:03:52.648Z,99.99
2019-03-01T14:05:08.156Z,99.99
2019-03-01T14:06:22.445Z,99.99
2019-03-01T14:07:32.172Z,99.99
2019-03-01T14:08:41.694Z,99.99
2019-03-01T14:09:51.125Z,99.99
2019-03-01T14:11:03.791Z,99.99
2019-03-01T14:12:13.546Z,99.99
2019-03-01T14:13:23.534Z,99.99
2019-03-01T14:14:34.573Z,99.99
2019-03-01T14:15:44.512Z,99.26
2019-03-01T14:16:55.546Z,99.16
2019-03-01T14:18:05.523Z,99.06
2019-03-01T14:19:15.234Z,97.74
2019-03-01T14:20:25.203Z,97.07
2019-03-01T14:21:35.563Z,96.31
2019-03-01T14:22:49.989Z,96.12
2019-03-01T14:23:59.691Z,95.46
2019-03-01T14:25:09.649Z,93.84
2019-03-01T14:26:21.650Z,93.89
2019-03-01T14:27:32.684Z,93.51
2019-03-01T14:28:44.354Z,91.71
2019-03-01T14:29:56.070Z,90.95
2019-03-01T14:31:09.452Z,90.28
2019-03-01T14:32:23.399Z,89.9
2019-03-01T14:33:35.618Z,88.76
2019-03-01T14:34:50.224Z,88.48
2019-03-01T14:36:02.658Z,88.1
2019-03-01T14:37:15.014Z,87.91
2019-03-01T14:38:29.881Z,87.62
2019-03-01T14:39:41.682Z,88.01
2019-03-01T14:40:56.027Z,87.72
2019-03-01T14:42:13.008Z,87.82
2019-03-01T14:43:27.250Z,87.53
2019-03-01T14:44:37.195Z,87.15
2019-03-01T14:45:47.994Z,86.77
2019-03-01T14:46:59.353Z,86.96
2019-03-01T14:48:11.875Z,86.58
2019-03-01T14:49:25.009Z,86.3
2019-03-01T14:50:36.642Z,86.11
2019-03-01T14:51:49.979Z,86.3
2019-03-01T14:53:01.452Z,86.2
2019-03-01T14:54:12.384Z,85.72
2019-03-01T14:55:26.287Z,86.39
2019-03-01T14:56:38.008Z,85.82
2019-03-01T14:57:48.746Z,85.25
2019-03-01T14:59:01.116Z,85.44
2019-03-01T15:00:14.762Z,85.06
2019-03-01T15:01:28.694Z,85.44
2019-03-01T15:02:42.241Z,85.35
2019-03-01T15:03:55.760Z,85.35
2019-03-01T15:05:16.904Z,85.16
2019-03-01T15:06:28.484Z,84.59
2019-03-01T15:07:40.110Z,84.78
2019-03-01T15:08:50.080Z,84.53